sensor_id;sensor_type;location;lat;lon;timestamp;P1;durP1;ratioP1;P2;durP2;ratioP2
8982;SDS011;20979;59.850;10.660;2022-08-19T00:06:16;5.87;;;3.90;;
8982;SDS011;20979;59.850;10.660;2022-08-19T00:12:19;6.23;;;4.07;;
8982;SDS011;20979;59.850;10.660;2022-08-19T00:15:05;5.50;;;4.20;;
8982;SDS011;20979;59.850;10.660;2022-08-19T00:21:04;8.20;;;6.77;;
8982;SDS011;20979;59.850;10.660;2022-08-19T00:29:55;9.73;;;7.27;;
8982;SDS011;20979;59.850;10.660;2022-08-19T00:35:12;11.07;;;7.50;;
8982;SDS011;20979;59.850;10.660;2022-08-19T00:43:26;10.50;;;9.07;;
8982;SDS011;20979;59.850;10.660;2022-08-19T00:55:16;8.90;;;7.00;;
8982;SDS011;20979;59.850;10.660;2022-08-19T01:01:08;11.93;;;8.37;;
8982;SDS011;20979;59.850;10.660;2022-08-19T01:03:41;10.90;;;8.30;;
8982;SDS011;20979;59.850;10.660;2022-08-19T01:06:36;9.30;;;7.60;;
8982;SDS011;20979;59.850;10.660;2022-08-19T01:09:04;8.63;;;6.37;;
8982;SDS011;20979;59.850;10.660;2022-08-19T02:20:14;7.80;;;5.80;;
8982;SDS011;20979;59.850;10.660;2022-08-19T02:53:40;6.07;;;4.60;;
8982;SDS011;20979;59.850;10.660;2022-08-19T02:59:46;5.33;;;4.60;;
8982;SDS011;20979;59.850;10.660;2022-08-19T03:17:50;4.80;;;4.30;;
8982;SDS011;20979;59.850;10.660;2022-08-19T03:20:17;4.90;;;4.50;;
8982;SDS011;20979;59.850;10.660;2022-08-19T03:29:06;5.57;;;4.23;;
8982;SDS011;20979;59.850;10.660;2022-08-19T03:34:51;4.43;;;3.93;;
8982;SDS011;20979;59.850;10.660;2022-08-19T03:40:24;4.00;;;3.70;;
8982;SDS011;20979;59.850;10.660;2022-08-19T03:45:38;4.83;;;3.93;;
8982;SDS011;20979;59.850;10.660;2022-08-19T03:48:32;4.43;;;4.03;;
8982;SDS011;20979;59.850;10.660;2022-08-19T03:51:40;4.30;;;3.80;;
8982;SDS011;20979;59.850;10.660;2022-08-19T03:54:35;3.87;;;3.57;;
8982;SDS011;20979;59.850;10.660;2022-08-19T03:57:20;3.83;;;3.50;;
8982;SDS011;20979;59.850;10.660;2022-08-19T04:03:15;5.27;;;3.73;;
8982;SDS011;20979;59.850;10.660;2022-08-19T04:06:08;4.67;;;3.60;;
8982;SDS011;20979;59.850;10.660;2022-08-19T04:08:56;3.93;;;3.27;;
8982;SDS011;20979;59.850;10.660;2022-08-19T04:14:44;3.50;;;3.20;;
8982;SDS011;20979;59.850;10.660;2022-08-19T04:17:11;3.50;;;3.20;;
8982;SDS011;20979;59.850;10.660;2022-08-19T04:22:50;3.83;;;3.27;;
8982;SDS011;20979;59.850;10.660;2022-08-19T04:28:06;3.60;;;3.30;;
8982;SDS011;20979;59.850;10.660;2022-08-19T04:30:38;4.53;;;3.00;;
8982;SDS011;20979;59.850;10.660;2022-08-19T04:33:50;3.83;;;3.23;;
8982;SDS011;20979;59.850;10.660;2022-08-19T04:39:21;7.53;;;3.20;;
8982;SDS011;20979;59.850;10.660;2022-08-19T05:00:36;3.30;;;2.77;;
8982;SDS011;20979;59.850;10.660;2022-08-19T05:03:25;4.00;;;2.73;;
8982;SDS011;20979;59.850;10.660;2022-08-19T05:06:14;3.63;;;2.90;;
8982;SDS011;20979;59.850;10.660;2022-08-19T05:08:43;3.63;;;3.10;;
8982;SDS011;20979;59.850;10.660;2022-08-19T05:11:11;3.90;;;2.90;;
8982;SDS011;20979;59.850;10.660;2022-08-19T05:13:39;7.57;;;3.47;;
8982;SDS011;20979;59.850;10.660;2022-08-19T05:19:10;3.23;;;2.93;;
8982;SDS011;20979;59.850;10.660;2022-08-19T05:40:12;5.17;;;2.70;;
8982;SDS011;20979;59.850;10.660;2022-08-19T05:42:40;6.80;;;3.30;;
8982;SDS011;20979;59.850;10.660;2022-08-19T05:45:28;4.10;;;2.80;;
8982;SDS011;20979;59.850;10.660;2022-08-19T06:04:38;3.53;;;2.37;;
8982;SDS011;20979;59.850;10.660;2022-08-19T06:07:28;4.40;;;2.90;;
8982;SDS011;20979;59.850;10.660;2022-08-19T06:09:56;3.93;;;2.60;;
8982;SDS011;20979;59.850;10.660;2022-08-19T06:12:54;6.40;;;2.53;;
8982;SDS011;20979;59.850;10.660;2022-08-19T06:18:45;5.07;;;2.27;;
8982;SDS011;20979;59.850;10.660;2022-08-19T06:37:02;4.63;;;2.20;;
8982;SDS011;20979;59.850;10.660;2022-08-19T06:39:34;4.83;;;2.20;;
8982;SDS011;20979;59.850;10.660;2022-08-19T06:42:05;3.60;;;2.03;;
8982;SDS011;20979;59.850;10.660;2022-08-19T06:45:17;6.23;;;2.30;;
8982;SDS011;20979;59.850;10.660;2022-08-19T06:48:02;6.13;;;2.50;;
8982;SDS011;20979;59.850;10.660;2022-08-19T06:50:29;2.10;;;1.77;;
8982;SDS011;20979;59.850;10.660;2022-08-19T06:52:58;4.47;;;2.40;;
8982;SDS011;20979;59.850;10.660;2022-08-19T06:55:25;3.63;;;1.90;;
8982;SDS011;20979;59.850;10.660;2022-08-19T07:03:36;4.00;;;2.07;;
8982;SDS011;20979;59.850;10.660;2022-08-19T07:06:04;5.33;;;2.13;;
8982;SDS011;20979;59.850;10.660;2022-08-19T07:08:34;3.17;;;2.10;;
8982;SDS011;20979;59.850;10.660;2022-08-19T07:11:01;4.13;;;2.17;;
8982;SDS011;20979;59.850;10.660;2022-08-19T07:13:39;5.27;;;2.23;;
8982;SDS011;20979;59.850;10.660;2022-08-19T07:16:09;5.80;;;2.28;;
8982;SDS011;20979;59.850;10.660;2022-08-19T07:18:37;4.50;;;2.10;;
8982;SDS011;20979;59.850;10.660;2022-08-19T07:21:20;3.97;;;2.20;;
8982;SDS011;20979;59.850;10.660;2022-08-19T07:24:09;3.58;;;2.20;;
8982;SDS011;20979;59.850;10.660;2022-08-19T07:26:46;4.97;;;2.20;;
8982;SDS011;20979;59.850;10.660;2022-08-19T07:29:37;4.35;;;2.20;;
8982;SDS011;20979;59.850;10.660;2022-08-19T07:32:04;4.13;;;1.83;;
8982;SDS011;20979;59.850;10.660;2022-08-19T07:41:13;5.00;;;2.10;;
8982;SDS011;20979;59.850;10.660;2022-08-19T07:43:59;3.70;;;2.05;;
8982;SDS011;20979;59.850;10.660;2022-08-19T07:46:28;3.22;;;2.03;;
8982;SDS011;20979;59.850;10.660;2022-08-19T07:53:05;3.08;;;1.95;;
8982;SDS011;20979;59.850;10.660;2022-08-19T07:54:59;4.95;;;1.90;;
8982;SDS011;20979;59.850;10.660;2022-08-19T07:57:37;3.88;;;1.83;;
8982;SDS011;20979;59.850;10.660;2022-08-19T08:00:05;5.05;;;2.00;;
8982;SDS011;20979;59.850;10.660;2022-08-19T08:02:39;4.27;;;1.90;;
8982;SDS011;20979;59.850;10.660;2022-08-19T08:05:08;3.63;;;2.13;;
8982;SDS011;20979;59.850;10.660;2022-08-19T08:07:53;3.17;;;2.03;;
8982;SDS011;20979;59.850;10.660;2022-08-19T08:10:38;5.60;;;2.70;;
8982;SDS011;20979;59.850;10.660;2022-08-19T08:13:20;5.72;;;2.30;;
8982;SDS011;20979;59.850;10.660;2022-08-19T08:15:48;3.28;;;2.08;;
8982;SDS011;20979;59.850;10.660;2022-08-19T08:18:17;3.83;;;2.10;;
8982;SDS011;20979;59.850;10.660;2022-08-19T08:20:45;4.05;;;1.98;;
8982;SDS011;20979;59.850;10.660;2022-08-19T08:23:14;4.60;;;2.08;;
8982;SDS011;20979;59.850;10.660;2022-08-19T08:25:51;3.60;;;2.00;;
8982;SDS011;20979;59.850;10.660;2022-08-19T08:28:21;3.25;;;2.00;;
8982;SDS011;20979;59.850;10.660;2022-08-19T08:30:49;4.45;;;2.05;;
8982;SDS011;20979;59.850;10.660;2022-08-19T08:33:17;4.20;;;2.35;;
8982;SDS011;20979;59.850;10.660;2022-08-19T08:35:46;3.45;;;2.03;;
8982;SDS011;20979;59.850;10.660;2022-08-19T08:38:27;5.05;;;2.17;;
8982;SDS011;20979;59.850;10.660;2022-08-19T08:40:57;4.30;;;2.00;;
8982;SDS011;20979;59.850;10.660;2022-08-19T08:43:38;8.23;;;2.20;;
8982;SDS011;20979;59.850;10.660;2022-08-19T08:46:12;5.77;;;2.20;;
8982;SDS011;20979;59.850;10.660;2022-08-19T08:48:41;5.97;;;2.00;;
8982;SDS011;20979;59.850;10.660;2022-08-19T08:51:12;4.15;;;2.30;;
8982;SDS011;20979;59.850;10.660;2022-08-19T08:53:55;3.17;;;1.97;;
8982;SDS011;20979;59.850;10.660;2022-08-19T08:56:22;4.73;;;1.90;;
8982;SDS011;20979;59.850;10.660;2022-08-19T08:58:54;4.07;;;1.90;;
8982;SDS011;20979;59.850;10.660;2022-08-19T09:01:24;3.13;;;1.70;;
8982;SDS011;20979;59.850;10.660;2022-08-19T09:03:52;3.28;;;2.10;;
8982;SDS011;20979;59.850;10.660;2022-08-19T09:06:25;3.45;;;1.88;;
8982;SDS011;20979;59.850;10.660;2022-08-19T09:09:12;2.92;;;1.83;;
8982;SDS011;20979;59.850;10.660;2022-08-19T09:14:55;3.67;;;1.90;;
8982;SDS011;20979;59.850;10.660;2022-08-19T09:17:57;3.22;;;1.90;;
8982;SDS011;20979;59.850;10.660;2022-08-19T09:23:25;6.50;;;2.17;;
8982;SDS011;20979;59.850;10.660;2022-08-19T09:26:25;2.55;;;2.00;;
8982;SDS011;20979;59.850;10.660;2022-08-19T09:28:52;3.55;;;1.90;;
8982;SDS011;20979;59.850;10.660;2022-08-19T09:34:32;4.85;;;2.10;;
8982;SDS011;20979;59.850;10.660;2022-08-19T09:52:30;5.72;;;1.92;;
8982;SDS011;20979;59.850;10.660;2022-08-19T09:55:35;3.78;;;2.05;;
8982;SDS011;20979;59.850;10.660;2022-08-19T10:01:34;3.50;;;1.63;;
8982;SDS011;20979;59.850;10.660;2022-08-19T10:04:15;3.75;;;1.95;;
8982;SDS011;20979;59.850;10.660;2022-08-19T10:07:14;3.60;;;2.10;;
8982;SDS011;20979;59.850;10.660;2022-08-19T10:10:21;4.78;;;1.88;;
8982;SDS011;20979;59.850;10.660;2022-08-19T10:13:18;5.28;;;2.20;;
8982;SDS011;20979;59.850;10.660;2022-08-19T10:16:12;4.78;;;2.17;;
8982;SDS011;20979;59.850;10.660;2022-08-19T10:27:46;4.35;;;1.75;;
8982;SDS011;20979;59.850;10.660;2022-08-19T10:30:14;2.58;;;1.70;;
8982;SDS011;20979;59.850;10.660;2022-08-19T10:33:09;3.40;;;1.90;;
8982;SDS011;20979;59.850;10.660;2022-08-19T10:41:55;3.03;;;1.58;;
8982;SDS011;20979;59.850;10.660;2022-08-19T11:12:28;2.85;;;1.95;;
8982;SDS011;20979;59.850;10.660;2022-08-19T11:18:13;2.35;;;1.50;;
8982;SDS011;20979;59.850;10.660;2022-08-19T11:25:10;2.45;;;1.30;;
8982;SDS011;20979;59.850;10.660;2022-08-19T11:27:40;3.63;;;1.85;;
8982;SDS011;20979;59.850;10.660;2022-08-19T11:30:36;2.70;;;1.35;;
8982;SDS011;20979;59.850;10.660;2022-08-19T11:33:33;3.95;;;1.38;;
8982;SDS011;20979;59.850;10.660;2022-08-19T11:42:49;1.75;;;1.30;;
8982;SDS011;20979;59.850;10.660;2022-08-19T12:10:21;4.25;;;1.52;;
8982;SDS011;20979;59.850;10.660;2022-08-19T12:16:28;1.90;;;1.08;;
8982;SDS011;20979;59.850;10.660;2022-08-19T12:35:15;1.73;;;1.10;;
8982;SDS011;20979;59.850;10.660;2022-08-19T14:16:50;1.58;;;1.15;;
8982;SDS011;20979;59.850;10.660;2022-08-19T14:22:56;2.47;;;1.40;;
8982;SDS011;20979;59.850;10.660;2022-08-19T14:53:28;1.50;;;1.20;;
8982;SDS011;20979;59.850;10.660;2022-08-19T14:56:23;4.72;;;1.10;;
8982;SDS011;20979;59.850;10.660;2022-08-19T14:58:51;4.13;;;1.20;;
8982;SDS011;20979;59.850;10.660;2022-08-19T15:25:16;1.15;;;1.00;;
8982;SDS011;20979;59.850;10.660;2022-08-19T15:37:18;1.15;;;1.05;;
8982;SDS011;20979;59.850;10.660;2022-08-19T15:40:03;2.10;;;1.13;;
8982;SDS011;20979;59.850;10.660;2022-08-19T15:42:50;1.90;;;1.10;;
8982;SDS011;20979;59.850;10.660;2022-08-19T15:50:19;2.25;;;1.10;;
8982;SDS011;20979;59.850;10.660;2022-08-19T16:48:24;2.63;;;1.00;;
8982;SDS011;20979;59.850;10.660;2022-08-19T16:51:10;1.02;;;0.93;;
8982;SDS011;20979;59.850;10.660;2022-08-19T16:53:56;0.90;;;0.80;;
8982;SDS011;20979;59.850;10.660;2022-08-19T16:56:37;1.00;;;0.90;;
8982;SDS011;20979;59.850;10.660;2022-08-19T16:59:08;1.40;;;0.77;;
8982;SDS011;20979;59.850;10.660;2022-08-19T17:01:37;1.67;;;0.98;;
8982;SDS011;20979;59.850;10.660;2022-08-19T17:04:07;1.75;;;1.10;;
8982;SDS011;20979;59.850;10.660;2022-08-19T17:06:35;1.73;;;0.90;;
8982;SDS011;20979;59.850;10.660;2022-08-19T17:09:11;1.30;;;0.90;;
8982;SDS011;20979;59.850;10.660;2022-08-19T17:12:00;1.60;;;1.02;;
8982;SDS011;20979;59.850;10.660;2022-08-19T17:17:43;1.73;;;0.80;;
8982;SDS011;20979;59.850;10.660;2022-08-19T17:32:51;1.38;;;0.85;;
8982;SDS011;20979;59.850;10.660;2022-08-19T17:35:28;1.55;;;1.02;;
8982;SDS011;20979;59.850;10.660;2022-08-19T17:37:55;1.23;;;0.90;;
8982;SDS011;20979;59.850;10.660;2022-08-19T17:40:37;1.00;;;1.00;;
8982;SDS011;20979;59.850;10.660;2022-08-19T17:43:05;1.85;;;1.02;;
8982;SDS011;20979;59.850;10.660;2022-08-19T17:45:33;1.83;;;1.13;;
8982;SDS011;20979;59.850;10.660;2022-08-19T17:48:10;2.88;;;1.13;;
8982;SDS011;20979;59.850;10.660;2022-08-19T17:53:55;1.60;;;1.40;;
8982;SDS011;20979;59.850;10.660;2022-08-19T17:56:45;1.33;;;1.00;;
8982;SDS011;20979;59.850;10.660;2022-08-19T17:59:13;1.33;;;1.23;;
8982;SDS011;20979;59.850;10.660;2022-08-19T18:01:41;2.25;;;1.23;;
8982;SDS011;20979;59.850;10.660;2022-08-19T18:04:10;1.10;;;1.10;;
8982;SDS011;20979;59.850;10.660;2022-08-19T18:06:37;2.10;;;1.60;;
8982;SDS011;20979;59.850;10.660;2022-08-19T18:09:06;1.98;;;1.88;;
8982;SDS011;20979;59.850;10.660;2022-08-19T18:11:33;2.03;;;1.20;;
8982;SDS011;20979;59.850;10.660;2022-08-19T18:14:01;3.00;;;1.20;;
8982;SDS011;20979;59.850;10.660;2022-08-19T18:16:29;1.83;;;1.20;;
8982;SDS011;20979;59.850;10.660;2022-08-19T18:18:57;2.17;;;1.33;;
8982;SDS011;20979;59.850;10.660;2022-08-19T18:21:26;1.63;;;1.25;;
8982;SDS011;20979;59.850;10.660;2022-08-19T18:23:55;4.55;;;1.30;;
8982;SDS011;20979;59.850;10.660;2022-08-19T18:26:22;2.00;;;1.35;;
8982;SDS011;20979;59.850;10.660;2022-08-19T18:28:49;1.55;;;1.20;;
8982;SDS011;20979;59.850;10.660;2022-08-19T18:31:17;2.03;;;1.88;;
8982;SDS011;20979;59.850;10.660;2022-08-19T18:33:44;1.50;;;1.40;;
8982;SDS011;20979;59.850;10.660;2022-08-19T18:36:16;2.80;;;1.08;;
8982;SDS011;20979;59.850;10.660;2022-08-19T18:38:46;1.30;;;1.15;;
8982;SDS011;20979;59.850;10.660;2022-08-19T18:41:30;2.80;;;1.45;;
8982;SDS011;20979;59.850;10.660;2022-08-19T18:44:15;1.90;;;1.50;;
8982;SDS011;20979;59.850;10.660;2022-08-19T18:47:00;1.75;;;1.48;;
8982;SDS011;20979;59.850;10.660;2022-08-19T18:49:45;1.50;;;1.40;;
8982;SDS011;20979;59.850;10.660;2022-08-19T18:52:15;1.67;;;1.58;;
8982;SDS011;20979;59.850;10.660;2022-08-19T18:54:45;2.42;;;1.50;;
8982;SDS011;20979;59.850;10.660;2022-08-19T18:57:21;2.33;;;1.60;;
8982;SDS011;20979;59.850;10.660;2022-08-19T18:59:49;1.58;;;1.45;;
8982;SDS011;20979;59.850;10.660;2022-08-19T19:05:11;3.88;;;1.40;;
8982;SDS011;20979;59.850;10.660;2022-08-19T19:07:41;1.98;;;1.73;;
8982;SDS011;20979;59.850;10.660;2022-08-19T19:10:17;3.08;;;1.80;;
8982;SDS011;20979;59.850;10.660;2022-08-19T19:12:50;2.08;;;1.50;;
8982;SDS011;20979;59.850;10.660;2022-08-19T19:17:55;4.20;;;1.75;;
8982;SDS011;20979;59.850;10.660;2022-08-19T19:20:45;2.83;;;1.80;;
8982;SDS011;20979;59.850;10.660;2022-08-19T19:23:29;1.88;;;1.50;;
8982;SDS011;20979;59.850;10.660;2022-08-19T19:26:11;1.40;;;1.30;;
8982;SDS011;20979;59.850;10.660;2022-08-19T19:31:45;2.22;;;1.70;;
8982;SDS011;20979;59.850;10.660;2022-08-19T19:34:26;4.22;;;1.55;;
8982;SDS011;20979;59.850;10.660;2022-08-19T19:37:46;2.42;;;1.52;;
8982;SDS011;20979;59.850;10.660;2022-08-19T19:40:09;1.87;;;1.67;;
8982;SDS011;20979;59.850;10.660;2022-08-19T19:45:52;2.57;;;1.77;;
8982;SDS011;20979;59.850;10.660;2022-08-19T19:48:42;3.53;;;1.60;;
8982;SDS011;20979;59.850;10.660;2022-08-19T19:51:20;3.28;;;1.98;;
8982;SDS011;20979;59.850;10.660;2022-08-19T19:54:20;2.00;;;1.70;;
8982;SDS011;20979;59.850;10.660;2022-08-19T19:57:04;1.90;;;1.60;;
8982;SDS011;20979;59.850;10.660;2022-08-19T20:06:05;1.80;;;1.70;;
8982;SDS011;20979;59.850;10.660;2022-08-19T20:09:17;2.80;;;1.70;;
8982;SDS011;20979;59.850;10.660;2022-08-19T20:14:56;2.27;;;1.67;;
8982;SDS011;20979;59.850;10.660;2022-08-19T20:18:04;1.50;;;1.40;;
8982;SDS011;20979;59.850;10.660;2022-08-19T20:20:50;2.77;;;1.60;;
8982;SDS011;20979;59.850;10.660;2022-08-19T20:26:49;2.47;;;1.83;;
8982;SDS011;20979;59.850;10.660;2022-08-19T20:29:30;1.93;;;1.60;;
8982;SDS011;20979;59.850;10.660;2022-08-19T20:32:34;2.30;;;1.93;;
8982;SDS011;20979;59.850;10.660;2022-08-19T20:37:46;3.53;;;2.13;;
8982;SDS011;20979;59.850;10.660;2022-08-19T20:40:24;1.80;;;1.70;;
8982;SDS011;20979;59.850;10.660;2022-08-19T20:43:25;2.67;;;1.70;;
8982;SDS011;20979;59.850;10.660;2022-08-19T20:46:02;2.07;;;1.63;;
8982;SDS011;20979;59.850;10.660;2022-08-19T20:48:44;6.30;;;1.80;;
8982;SDS011;20979;59.850;10.660;2022-08-19T20:51:14;2.90;;;1.70;;
8982;SDS011;20979;59.850;10.660;2022-08-19T20:54:00;1.87;;;1.77;;
8982;SDS011;20979;59.850;10.660;2022-08-19T20:56:41;2.10;;;1.93;;
8982;SDS011;20979;59.850;10.660;2022-08-19T21:11:07;5.17;;;1.97;;
8982;SDS011;20979;59.850;10.660;2022-08-19T21:13:37;2.77;;;1.77;;
8982;SDS011;20979;59.850;10.660;2022-08-19T21:16:19;3.77;;;1.90;;
8982;SDS011;20979;59.850;10.660;2022-08-19T21:24:45;4.80;;;2.20;;
8982;SDS011;20979;59.850;10.660;2022-08-19T21:31:04;4.90;;;2.20;;
8982;SDS011;20979;59.850;10.660;2022-08-19T21:52:24;3.33;;;2.27;;
8982;SDS011;20979;59.850;10.660;2022-08-19T21:55:24;2.67;;;2.47;;
8982;SDS011;20979;59.850;10.660;2022-08-19T21:58:16;4.83;;;2.50;;
8982;SDS011;20979;59.850;10.660;2022-08-19T22:03:45;3.87;;;2.47;;
8982;SDS011;20979;59.850;10.660;2022-08-19T22:06:12;4.60;;;2.50;;
8982;SDS011;20979;59.850;10.660;2022-08-19T22:08:43;2.43;;;2.23;;
8982;SDS011;20979;59.850;10.660;2022-08-19T22:14:21;2.63;;;2.40;;
8982;SDS011;20979;59.850;10.660;2022-08-19T22:26:56;2.70;;;2.50;;
8982;SDS011;20979;59.850;10.660;2022-08-19T22:32:36;3.47;;;2.53;;
8982;SDS011;20979;59.850;10.660;2022-08-19T22:38:25;2.70;;;2.50;;
8982;SDS011;20979;59.850;10.660;2022-08-19T22:40:52;3.90;;;2.57;;
8982;SDS011;20979;59.850;10.660;2022-08-19T23:14:19;3.20;;;2.90;;
8982;SDS011;20979;59.850;10.660;2022-08-19T23:16:56;3.10;;;2.90;;
8982;SDS011;20979;59.850;10.660;2022-08-19T23:19:26;3.87;;;2.83;;
8982;SDS011;20979;59.850;10.660;2022-08-19T23:27:47;3.50;;;2.97;;
8982;SDS011;20979;59.850;10.660;2022-08-19T23:40:13;3.20;;;2.90;;
